Overview Statistics Trail Chart Weather Telemetry Raw packets
 

This is the latest recevied weather packets stored in our database for station/object HI3RRR-13. If no packets are shown the sender has not sent any weather packets the latest 10 day(s).

<< 36 37 38 39 40 41 42 >>
Time Temp. Humidity Pressure Rain* Wind** Luminosity Snow
1788096253 27.22° C 84% 1016 hPa 0 mm - - -
1788095653 27.22° C 84% 1016 hPa 0 mm - - -
1788095052 25° C 94% 1016 hPa 0 mm - - -
1788094452 26.11° C 93% 1016 hPa 0 mm - - -
1788093851 30.56° C 88% 1016 hPa 0 mm - - -
1788093250 24.44° C 94% 1016 hPa 0 mm - - -
1788092650 25° C 94% 1016 hPa 0 mm - - -
1788092049 25° C 94% 1016 hPa 0 mm - - -
1788091449 25.56° C 93% 1016 hPa 0 mm - - -
1788090848 25.56° C 93% 1016 hPa 0 mm - - -
1788090248 26.11° C 93% 1016 hPa 0 mm - - -
1788089647 23.33° C 94% 1016 hPa 0 mm - - -
1788089046 23.33° C 94% 1016 hPa 0 mm - - -
1788088446 23.33° C 94% 1016 hPa 0 mm - - -
1788087845 23.33° C 94% 1016 hPa 0 mm - - -
1788087245 23.89° C 94% 1016 hPa 0 mm - - -
1788086644 24.44° C 93% 1016 hPa 0 mm - - -
1788086043 24.44° C 93% 1016 hPa 0 mm - - -
1788085443 24.44° C 93% 1016 hPa 0 mm - - -
1788084842 24.44° C 93% 1016 hPa 0 mm - - -
1788084242 24.44° C 93% 1016 hPa 0 mm - - -
1788083641 24.44° C 93% 1016 hPa 0 mm - - -
1788083041 24.44° C 93% 1016 hPa 0 mm - - -
1788082440 24.44° C 93% 1016 hPa 0 mm - - -
1788081839 24.44° C 93% 1016 hPa 0 mm - - -

* Rain latest hour (hover to see other rain measurements)
** Current wind speed in m/s (hover to see current wind gust speed)